sensor_id;sensor_type;location;lat;lon;timestamp;P1;durP1;ratioP1;P2;durP2;ratioP2
72791;SDS011;60907;53.268;8.764;2023-08-24T00:00:15;2.22;;;1.30;;
72791;SDS011;60907;53.268;8.764;2023-08-24T00:02:40;4.90;;;1.42;;
72791;SDS011;60907;53.268;8.764;2023-08-24T00:05:06;2.35;;;1.63;;
72791;SDS011;60907;53.268;8.764;2023-08-24T00:07:31;1.25;;;1.13;;
72791;SDS011;60907;53.268;8.764;2023-08-24T00:09:57;1.55;;;0.95;;
72791;SDS011;60907;53.268;8.764;2023-08-24T00:12:23;3.05;;;1.50;;
72791;SDS011;60907;53.268;8.764;2023-08-24T00:14:48;1.92;;;1.38;;
72791;SDS011;60907;53.268;8.764;2023-08-24T00:17:14;1.80;;;1.38;;
72791;SDS011;60907;53.268;8.764;2023-08-24T00:19:40;3.63;;;1.30;;
72791;SDS011;60907;53.268;8.764;2023-08-24T00:22:05;2.33;;;1.58;;
72791;SDS011;60907;53.268;8.764;2023-08-24T00:24:30;1.55;;;1.10;;
72791;SDS011;60907;53.268;8.764;2023-08-24T00:26:56;2.10;;;1.37;;
72791;SDS011;60907;53.268;8.764;2023-08-24T00:29:21;2.75;;;1.48;;
72791;SDS011;60907;53.268;8.764;2023-08-24T00:31:47;1.83;;;1.52;;
72791;SDS011;60907;53.268;8.764;2023-08-24T00:34:12;2.05;;;1.52;;
72791;SDS011;60907;53.268;8.764;2023-08-24T00:36:38;1.67;;;1.13;;
72791;SDS011;60907;53.268;8.764;2023-08-24T00:39:03;2.40;;;1.40;;
72791;SDS011;60907;53.268;8.764;2023-08-24T00:41:29;2.67;;;1.30;;
72791;SDS011;60907;53.268;8.764;2023-08-24T00:43:55;1.77;;;1.40;;
72791;SDS011;60907;53.268;8.764;2023-08-24T00:46:20;1.58;;;1.30;;
72791;SDS011;60907;53.268;8.764;2023-08-24T00:48:46;2.42;;;1.15;;
72791;SDS011;60907;53.268;8.764;2023-08-24T00:51:12;1.48;;;1.30;;
72791;SDS011;60907;53.268;8.764;2023-08-24T00:53:37;1.83;;;1.23;;
72791;SDS011;60907;53.268;8.764;2023-08-24T00:56:03;1.70;;;1.40;;
72791;SDS011;60907;53.268;8.764;2023-08-24T00:58:28;1.83;;;1.15;;
72791;SDS011;60907;53.268;8.764;2023-08-24T01:00:56;1.67;;;1.13;;
72791;SDS011;60907;53.268;8.764;2023-08-24T01:03:22;2.33;;;1.40;;
72791;SDS011;60907;53.268;8.764;2023-08-24T01:05:49;2.20;;;1.20;;
72791;SDS011;60907;53.268;8.764;2023-08-24T01:08:14;2.00;;;1.70;;
72791;SDS011;60907;53.268;8.764;2023-08-24T01:13:33;2.22;;;1.17;;
72791;SDS011;60907;53.268;8.764;2023-08-24T01:16:19;2.65;;;1.20;;
72791;SDS011;60907;53.268;8.764;2023-08-24T01:18:52;1.70;;;1.30;;
72791;SDS011;60907;53.268;8.764;2023-08-24T01:21:20;4.05;;;2.00;;
72791;SDS011;60907;53.268;8.764;2023-08-24T01:26:28;2.42;;;1.40;;
72791;SDS011;60907;53.268;8.764;2023-08-24T01:28:54;2.17;;;0.95;;
72791;SDS011;60907;53.268;8.764;2023-08-24T01:31:19;1.60;;;1.10;;
72791;SDS011;60907;53.268;8.764;2023-08-24T01:33:45;2.10;;;1.70;;
72791;SDS011;60907;53.268;8.764;2023-08-24T01:36:11;2.25;;;1.30;;
72791;SDS011;60907;53.268;8.764;2023-08-24T01:38:37;2.20;;;1.55;;
72791;SDS011;60907;53.268;8.764;2023-08-24T01:44:02;6.20;;;2.30;;
72791;SDS011;60907;53.268;8.764;2023-08-24T01:46:28;2.90;;;1.80;;
72791;SDS011;60907;53.268;8.764;2023-08-24T01:48:54;2.72;;;1.30;;
72791;SDS011;60907;53.268;8.764;2023-08-24T01:51:20;2.63;;;1.30;;
72791;SDS011;60907;53.268;8.764;2023-08-24T01:53:46;2.88;;;1.85;;
72791;SDS011;60907;53.268;8.764;2023-08-24T01:56:12;2.22;;;1.50;;
72791;SDS011;60907;53.268;8.764;2023-08-24T01:58:39;3.33;;;1.95;;
72791;SDS011;60907;53.268;8.764;2023-08-24T02:01:05;3.25;;;1.65;;
72791;SDS011;60907;53.268;8.764;2023-08-24T02:03:31;2.42;;;1.27;;
72791;SDS011;60907;53.268;8.764;2023-08-24T02:05:56;2.63;;;1.33;;
72791;SDS011;60907;53.268;8.764;2023-08-24T02:08:22;3.10;;;1.52;;
72791;SDS011;60907;53.268;8.764;2023-08-24T02:10:47;6.95;;;2.25;;
72791;SDS011;60907;53.268;8.764;2023-08-24T02:13:13;3.95;;;1.73;;
72791;SDS011;60907;53.268;8.764;2023-08-24T02:15:38;2.77;;;1.73;;
72791;SDS011;60907;53.268;8.764;2023-08-24T02:18:07;2.58;;;1.83;;
72791;SDS011;60907;53.268;8.764;2023-08-24T02:20:35;4.57;;;2.00;;
72791;SDS011;60907;53.268;8.764;2023-08-24T02:23:02;3.20;;;1.67;;
72791;SDS011;60907;53.268;8.764;2023-08-24T02:25:27;3.83;;;1.67;;
72791;SDS011;60907;53.268;8.764;2023-08-24T02:27:53;3.53;;;1.60;;
72791;SDS011;60907;53.268;8.764;2023-08-24T02:30:19;3.20;;;1.50;;
72791;SDS011;60907;53.268;8.764;2023-08-24T02:32:44;2.13;;;1.40;;
72791;SDS011;60907;53.268;8.764;2023-08-24T02:35:09;3.33;;;1.50;;
72791;SDS011;60907;53.268;8.764;2023-08-24T02:37:35;3.35;;;1.48;;
72791;SDS011;60907;53.268;8.764;2023-08-24T02:40:00;2.40;;;1.80;;
72791;SDS011;60907;53.268;8.764;2023-08-24T02:42:26;3.38;;;1.98;;
72791;SDS011;60907;53.268;8.764;2023-08-24T02:44:52;2.80;;;1.88;;
72791;SDS011;60907;53.268;8.764;2023-08-24T02:47:17;3.95;;;1.65;;
72791;SDS011;60907;53.268;8.764;2023-08-24T02:49:42;3.58;;;1.90;;
72791;SDS011;60907;53.268;8.764;2023-08-24T02:52:08;2.80;;;1.95;;
72791;SDS011;60907;53.268;8.764;2023-08-24T02:54:33;4.47;;;1.45;;
72791;SDS011;60907;53.268;8.764;2023-08-24T02:56:59;4.20;;;2.05;;
72791;SDS011;60907;53.268;8.764;2023-08-24T02:59:24;4.07;;;1.98;;
72791;SDS011;60907;53.268;8.764;2023-08-24T03:01:51;3.40;;;2.03;;
72791;SDS011;60907;53.268;8.764;2023-08-24T03:04:17;5.68;;;2.25;;
72791;SDS011;60907;53.268;8.764;2023-08-24T03:06:43;4.45;;;3.17;;
72791;SDS011;60907;53.268;8.764;2023-08-24T03:09:09;4.65;;;2.55;;
72791;SDS011;60907;53.268;8.764;2023-08-24T03:11:35;4.13;;;2.80;;
72791;SDS011;60907;53.268;8.764;2023-08-24T03:14:00;6.18;;;2.85;;
72791;SDS011;60907;53.268;8.764;2023-08-24T03:16:26;7.50;;;3.85;;
72791;SDS011;60907;53.268;8.764;2023-08-24T03:18:51;4.43;;;2.42;;
72791;SDS011;60907;53.268;8.764;2023-08-24T03:21:17;5.88;;;2.50;;
72791;SDS011;60907;53.268;8.764;2023-08-24T03:23:42;8.18;;;2.40;;
72791;SDS011;60907;53.268;8.764;2023-08-24T03:26:08;3.88;;;2.85;;
72791;SDS011;60907;53.268;8.764;2023-08-24T03:28:33;5.03;;;3.20;;
72791;SDS011;60907;53.268;8.764;2023-08-24T03:30:58;7.32;;;3.58;;
72791;SDS011;60907;53.268;8.764;2023-08-24T03:33:25;5.70;;;2.95;;
72791;SDS011;60907;53.268;8.764;2023-08-24T03:35:51;5.20;;;2.95;;
72791;SDS011;60907;53.268;8.764;2023-08-24T03:38:17;7.13;;;3.03;;
72791;SDS011;60907;53.268;8.764;2023-08-24T03:40:42;5.57;;;3.20;;
72791;SDS011;60907;53.268;8.764;2023-08-24T03:43:07;5.85;;;3.05;;
72791;SDS011;60907;53.268;8.764;2023-08-24T03:45:33;8.00;;;3.20;;
72791;SDS011;60907;53.268;8.764;2023-08-24T03:47:58;3.80;;;2.90;;
72791;SDS011;60907;53.268;8.764;2023-08-24T03:50:24;4.50;;;2.58;;
72791;SDS011;60907;53.268;8.764;2023-08-24T03:52:50;3.67;;;2.30;;
72791;SDS011;60907;53.268;8.764;2023-08-24T03:55:15;3.92;;;2.13;;
72791;SDS011;60907;53.268;8.764;2023-08-24T03:57:41;4.60;;;2.20;;
72791;SDS011;60907;53.268;8.764;2023-08-24T04:00:07;6.90;;;2.30;;
72791;SDS011;60907;53.268;8.764;2023-08-24T04:02:36;5.07;;;2.35;;
72791;SDS011;60907;53.268;8.764;2023-08-24T04:07:28;3.75;;;2.10;;
72791;SDS011;60907;53.268;8.764;2023-08-24T04:09:53;4.35;;;2.33;;
72791;SDS011;60907;53.268;8.764;2023-08-24T04:12:19;3.47;;;2.45;;
72791;SDS011;60907;53.268;8.764;2023-08-24T04:14:44;3.70;;;1.92;;
72791;SDS011;60907;53.268;8.764;2023-08-24T04:17:10;6.03;;;2.33;;
72791;SDS011;60907;53.268;8.764;2023-08-24T04:19:37;5.68;;;2.95;;
72791;SDS011;60907;53.268;8.764;2023-08-24T04:22:03;4.53;;;2.85;;
72791;SDS011;60907;53.268;8.764;2023-08-24T04:24:28;3.15;;;2.28;;
72791;SDS011;60907;53.268;8.764;2023-08-24T04:26:54;5.93;;;2.25;;
72791;SDS011;60907;53.268;8.764;2023-08-24T04:29:19;5.95;;;2.80;;
72791;SDS011;60907;53.268;8.764;2023-08-24T04:31:44;4.63;;;2.80;;
72791;SDS011;60907;53.268;8.764;2023-08-24T04:34:10;5.25;;;2.60;;
72791;SDS011;60907;53.268;8.764;2023-08-24T04:36:36;5.45;;;3.05;;
72791;SDS011;60907;53.268;8.764;2023-08-24T04:39:02;6.97;;;2.85;;
72791;SDS011;60907;53.268;8.764;2023-08-24T04:41:27;5.53;;;2.65;;
72791;SDS011;60907;53.268;8.764;2023-08-24T04:43:53;5.28;;;2.65;;
72791;SDS011;60907;53.268;8.764;2023-08-24T04:46:19;6.40;;;3.35;;
72791;SDS011;60907;53.268;8.764;2023-08-24T04:48:45;5.47;;;2.97;;
72791;SDS011;60907;53.268;8.764;2023-08-24T04:51:10;7.87;;;3.33;;
72791;SDS011;60907;53.268;8.764;2023-08-24T04:53:36;7.90;;;3.60;;
72791;SDS011;60907;53.268;8.764;2023-08-24T04:56:01;5.72;;;3.35;;
72791;SDS011;60907;53.268;8.764;2023-08-24T04:58:26;8.85;;;3.58;;
72791;SDS011;60907;53.268;8.764;2023-08-24T05:00:52;8.80;;;3.60;;
72791;SDS011;60907;53.268;8.764;2023-08-24T05:03:17;6.38;;;3.70;;
72791;SDS011;60907;53.268;8.764;2023-08-24T05:05:44;6.82;;;3.85;;
72791;SDS011;60907;53.268;8.764;2023-08-24T05:08:09;6.45;;;3.13;;
72791;SDS011;60907;53.268;8.764;2023-08-24T05:10:35;8.23;;;3.63;;
72791;SDS011;60907;53.268;8.764;2023-08-24T05:13:01;9.38;;;2.88;;
72791;SDS011;60907;53.268;8.764;2023-08-24T05:15:26;6.75;;;3.35;;
72791;SDS011;60907;53.268;8.764;2023-08-24T05:17:52;5.93;;;3.78;;
72791;SDS011;60907;53.268;8.764;2023-08-24T05:20:24;7.28;;;3.35;;
72791;SDS011;60907;53.268;8.764;2023-08-24T05:22:50;5.20;;;3.50;;
72791;SDS011;60907;53.268;8.764;2023-08-24T05:25:16;7.60;;;3.70;;
72791;SDS011;60907;53.268;8.764;2023-08-24T05:27:41;5.03;;;3.28;;
72791;SDS011;60907;53.268;8.764;2023-08-24T05:30:07;8.70;;;3.63;;
72791;SDS011;60907;53.268;8.764;2023-08-24T05:32:33;6.53;;;3.45;;
72791;SDS011;60907;53.268;8.764;2023-08-24T05:35:02;6.63;;;2.88;;
72791;SDS011;60907;53.268;8.764;2023-08-24T05:37:28;7.38;;;3.03;;
72791;SDS011;60907;53.268;8.764;2023-08-24T05:39:54;6.18;;;3.05;;
72791;SDS011;60907;53.268;8.764;2023-08-24T05:42:19;7.18;;;3.90;;
72791;SDS011;60907;53.268;8.764;2023-08-24T05:44:45;8.07;;;3.77;;
72791;SDS011;60907;53.268;8.764;2023-08-24T05:47:10;9.70;;;3.88;;
72791;SDS011;60907;53.268;8.764;2023-08-24T05:49:35;7.53;;;3.90;;
72791;SDS011;60907;53.268;8.764;2023-08-24T05:52:01;7.35;;;3.40;;
72791;SDS011;60907;53.268;8.764;2023-08-24T05:54:26;4.80;;;2.88;;
72791;SDS011;60907;53.268;8.764;2023-08-24T05:56:52;6.73;;;2.77;;
72791;SDS011;60907;53.268;8.764;2023-08-24T05:59:17;5.73;;;2.90;;
72791;SDS011;60907;53.268;8.764;2023-08-24T06:01:42;7.23;;;2.30;;
72791;SDS011;60907;53.268;8.764;2023-08-24T06:04:08;4.20;;;2.10;;
72791;SDS011;60907;53.268;8.764;2023-08-24T06:06:34;3.72;;;2.78;;
72791;SDS011;60907;53.268;8.764;2023-08-24T06:09:00;6.88;;;3.30;;
72791;SDS011;60907;53.268;8.764;2023-08-24T06:11:25;8.38;;;3.38;;
72791;SDS011;60907;53.268;8.764;2023-08-24T06:13:51;8.18;;;3.13;;
72791;SDS011;60907;53.268;8.764;2023-08-24T06:16:19;10.25;;;4.35;;
72791;SDS011;60907;53.268;8.764;2023-08-24T06:18:45;8.05;;;3.47;;
72791;SDS011;60907;53.268;8.764;2023-08-24T06:21:11;8.82;;;4.13;;
72791;SDS011;60907;53.268;8.764;2023-08-24T06:23:36;7.88;;;4.30;;
72791;SDS011;60907;53.268;8.764;2023-08-24T06:26:02;9.40;;;4.22;;
72791;SDS011;60907;53.268;8.764;2023-08-24T06:28:27;7.20;;;4.10;;
72791;SDS011;60907;53.268;8.764;2023-08-24T06:30:54;10.20;;;4.10;;
72791;SDS011;60907;53.268;8.764;2023-08-24T06:33:20;8.15;;;4.57;;
72791;SDS011;60907;53.268;8.764;2023-08-24T06:35:45;8.33;;;4.80;;
72791;SDS011;60907;53.268;8.764;2023-08-24T06:38:10;8.85;;;4.15;;
72791;SDS011;60907;53.268;8.764;2023-08-24T06:40:36;9.05;;;3.15;;
72791;SDS011;60907;53.268;8.764;2023-08-24T06:43:02;4.43;;;2.80;;
72791;SDS011;60907;53.268;8.764;2023-08-24T06:45:27;4.47;;;2.60;;
72791;SDS011;60907;53.268;8.764;2023-08-24T06:47:53;5.00;;;2.03;;
72791;SDS011;60907;53.268;8.764;2023-08-24T06:50:18;4.00;;;2.28;;
72791;SDS011;60907;53.268;8.764;2023-08-24T06:52:46;4.63;;;2.20;;
72791;SDS011;60907;53.268;8.764;2023-08-24T06:55:12;5.57;;;2.20;;
72791;SDS011;60907;53.268;8.764;2023-08-24T06:57:38;3.17;;;2.15;;
72791;SDS011;60907;53.268;8.764;2023-08-24T07:00:03;8.15;;;2.72;;
72791;SDS011;60907;53.268;8.764;2023-08-24T07:02:35;6.18;;;2.42;;
72791;SDS011;60907;53.268;8.764;2023-08-24T07:05:02;6.22;;;2.55;;
72791;SDS011;60907;53.268;8.764;2023-08-24T07:07:29;4.20;;;1.88;;
72791;SDS011;60907;53.268;8.764;2023-08-24T07:09:55;4.18;;;1.60;;
72791;SDS011;60907;53.268;8.764;2023-08-24T07:12:21;4.28;;;1.65;;
72791;SDS011;60907;53.268;8.764;2023-08-24T07:14:46;3.13;;;1.67;;
72791;SDS011;60907;53.268;8.764;2023-08-24T07:17:11;2.13;;;1.30;;
72791;SDS011;60907;53.268;8.764;2023-08-24T07:19:37;3.97;;;1.97;;
72791;SDS011;60907;53.268;8.764;2023-08-24T07:22:02;3.33;;;2.00;;
72791;SDS011;60907;53.268;8.764;2023-08-24T07:24:28;6.43;;;2.08;;
72791;SDS011;60907;53.268;8.764;2023-08-24T07:26:54;6.05;;;1.90;;
72791;SDS011;60907;53.268;8.764;2023-08-24T07:29:20;8.00;;;2.33;;
72791;SDS011;60907;53.268;8.764;2023-08-24T07:31:46;5.40;;;2.53;;
72791;SDS011;60907;53.268;8.764;2023-08-24T07:34:12;3.47;;;1.80;;
72791;SDS011;60907;53.268;8.764;2023-08-24T07:36:37;3.60;;;1.33;;
72791;SDS011;60907;53.268;8.764;2023-08-24T07:39:02;3.88;;;1.90;;
72791;SDS011;60907;53.268;8.764;2023-08-24T07:41:28;4.85;;;2.20;;
72791;SDS011;60907;53.268;8.764;2023-08-24T07:43:53;2.92;;;1.60;;
72791;SDS011;60907;53.268;8.764;2023-08-24T07:46:19;3.83;;;2.15;;
72791;SDS011;60907;53.268;8.764;2023-08-24T07:48:45;3.72;;;1.55;;
72791;SDS011;60907;53.268;8.764;2023-08-24T07:51:10;3.70;;;2.00;;
72791;SDS011;60907;53.268;8.764;2023-08-24T07:53:37;4.30;;;1.60;;
72791;SDS011;60907;53.268;8.764;2023-08-24T07:56:02;4.17;;;1.70;;
72791;SDS011;60907;53.268;8.764;2023-08-24T07:58:28;5.00;;;1.60;;
72791;SDS011;60907;53.268;8.764;2023-08-24T08:00:53;4.55;;;1.65;;
72791;SDS011;60907;53.268;8.764;2023-08-24T08:03:19;2.45;;;1.85;;
72791;SDS011;60907;53.268;8.764;2023-08-24T08:05:45;3.40;;;1.80;;
72791;SDS011;60907;53.268;8.764;2023-08-24T08:08:12;3.90;;;1.90;;
72791;SDS011;60907;53.268;8.764;2023-08-24T08:10:38;3.17;;;1.45;;
72791;SDS011;60907;53.268;8.764;2023-08-24T08:13:04;5.57;;;1.40;;
72791;SDS011;60907;53.268;8.764;2023-08-24T08:15:29;5.43;;;1.42;;
72791;SDS011;60907;53.268;8.764;2023-08-24T08:17:55;4.55;;;1.52;;
72791;SDS011;60907;53.268;8.764;2023-08-24T08:20:20;4.45;;;2.38;;
72791;SDS011;60907;53.268;8.764;2023-08-24T08:22:46;4.55;;;2.00;;
72791;SDS011;60907;53.268;8.764;2023-08-24T08:25:11;1.70;;;1.50;;
72791;SDS011;60907;53.268;8.764;2023-08-24T08:27:42;3.13;;;1.50;;
72791;SDS011;60907;53.268;8.764;2023-08-24T08:30:08;5.45;;;2.00;;
72791;SDS011;60907;53.268;8.764;2023-08-24T08:32:34;3.03;;;1.83;;
72791;SDS011;60907;53.268;8.764;2023-08-24T08:34:59;3.10;;;1.50;;
72791;SDS011;60907;53.268;8.764;2023-08-24T08:37:26;3.50;;;1.17;;
72791;SDS011;60907;53.268;8.764;2023-08-24T08:39:51;2.92;;;1.38;;
72791;SDS011;60907;53.268;8.764;2023-08-24T08:42:17;3.83;;;1.70;;
72791;SDS011;60907;53.268;8.764;2023-08-24T08:44:46;4.13;;;1.58;;
72791;SDS011;60907;53.268;8.764;2023-08-24T08:47:12;2.88;;;1.20;;
72791;SDS011;60907;53.268;8.764;2023-08-24T08:49:38;3.92;;;1.00;;
72791;SDS011;60907;53.268;8.764;2023-08-24T08:52:05;2.85;;;1.30;;
72791;SDS011;60907;53.268;8.764;2023-08-24T08:54:30;2.95;;;0.98;;
72791;SDS011;60907;53.268;8.764;2023-08-24T08:56:58;3.05;;;1.40;;
72791;SDS011;60907;53.268;8.764;2023-08-24T08:59:24;3.95;;;1.35;;
72791;SDS011;60907;53.268;8.764;2023-08-24T09:01:54;2.65;;;1.20;;
72791;SDS011;60907;53.268;8.764;2023-08-24T09:04:20;5.90;;;1.45;;
72791;SDS011;60907;53.268;8.764;2023-08-24T09:06:45;3.20;;;1.35;;
72791;SDS011;60907;53.268;8.764;2023-08-24T09:09:11;3.03;;;1.05;;
72791;SDS011;60907;53.268;8.764;2023-08-24T09:11:37;4.35;;;1.58;;
72791;SDS011;60907;53.268;8.764;2023-08-24T09:14:04;3.10;;;1.65;;
72791;SDS011;60907;53.268;8.764;2023-08-24T09:16:29;3.07;;;1.37;;
72791;SDS011;60907;53.268;8.764;2023-08-24T09:18:55;3.25;;;1.38;;
72791;SDS011;60907;53.268;8.764;2023-08-24T09:21:20;3.80;;;1.43;;
72791;SDS011;60907;53.268;8.764;2023-08-24T09:23:52;4.78;;;1.20;;
72791;SDS011;60907;53.268;8.764;2023-08-24T09:26:27;4.20;;;1.83;;
72791;SDS011;60907;53.268;8.764;2023-08-24T09:28:56;4.93;;;1.58;;
72791;SDS011;60907;53.268;8.764;2023-08-24T09:31:23;3.85;;;1.98;;
72791;SDS011;60907;53.268;8.764;2023-08-24T09:33:49;4.38;;;1.90;;
72791;SDS011;60907;53.268;8.764;2023-08-24T09:36:14;4.50;;;2.20;;
72791;SDS011;60907;53.268;8.764;2023-08-24T09:38:46;5.30;;;2.08;;
72791;SDS011;60907;53.268;8.764;2023-08-24T09:41:15;6.10;;;2.10;;
72791;SDS011;60907;53.268;8.764;2023-08-24T09:43:41;4.07;;;1.88;;
72791;SDS011;60907;53.268;8.764;2023-08-24T09:46:06;5.63;;;2.57;;
72791;SDS011;60907;53.268;8.764;2023-08-24T09:48:33;7.93;;;2.78;;
72791;SDS011;60907;53.268;8.764;2023-08-24T09:50:58;6.80;;;2.22;;
72791;SDS011;60907;53.268;8.764;2023-08-24T09:53:26;7.10;;;2.47;;
72791;SDS011;60907;53.268;8.764;2023-08-24T09:55:54;4.20;;;2.50;;
72791;SDS011;60907;53.268;8.764;2023-08-24T09:58:24;2.58;;;1.80;;
72791;SDS011;60907;53.268;8.764;2023-08-24T10:00:49;3.83;;;2.00;;
72791;SDS011;60907;53.268;8.764;2023-08-24T10:03:16;5.20;;;2.22;;
72791;SDS011;60907;53.268;8.764;2023-08-24T10:05:47;7.28;;;2.38;;
72791;SDS011;60907;53.268;8.764;2023-08-24T10:08:14;4.05;;;1.83;;
72791;SDS011;60907;53.268;8.764;2023-08-24T10:10:40;5.53;;;2.22;;
72791;SDS011;60907;53.268;8.764;2023-08-24T10:16:05;7.95;;;2.67;;
72791;SDS011;60907;53.268;8.764;2023-08-24T10:18:32;4.00;;;2.33;;
72791;SDS011;60907;53.268;8.764;2023-08-24T10:20:58;5.10;;;2.63;;
72791;SDS011;60907;53.268;8.764;2023-08-24T10:23:24;4.75;;;2.60;;
72791;SDS011;60907;53.268;8.764;2023-08-24T10:25:52;4.38;;;2.67;;
72791;SDS011;60907;53.268;8.764;2023-08-24T10:28:18;5.00;;;2.85;;
72791;SDS011;60907;53.268;8.764;2023-08-24T10:30:45;5.38;;;3.20;;
72791;SDS011;60907;53.268;8.764;2023-08-24T10:33:11;5.95;;;2.72;;
72791;SDS011;60907;53.268;8.764;2023-08-24T10:35:38;5.65;;;2.70;;
72791;SDS011;60907;53.268;8.764;2023-08-24T10:38:05;5.63;;;2.75;;
72791;SDS011;60907;53.268;8.764;2023-08-24T10:40:31;4.55;;;2.38;;
72791;SDS011;60907;53.268;8.764;2023-08-24T10:42:57;5.03;;;2.45;;
72791;SDS011;60907;53.268;8.764;2023-08-24T10:45:24;5.68;;;2.80;;
72791;SDS011;60907;53.268;8.764;2023-08-24T10:47:51;6.45;;;2.67;;
72791;SDS011;60907;53.268;8.764;2023-08-24T10:50:18;6.45;;;2.78;;
72791;SDS011;60907;53.268;8.764;2023-08-24T10:52:44;7.18;;;2.83;;
72791;SDS011;60907;53.268;8.764;2023-08-24T10:55:23;4.60;;;2.63;;
72791;SDS011;60907;53.268;8.764;2023-08-24T10:57:59;6.22;;;2.67;;
72791;SDS011;60907;53.268;8.764;2023-08-24T11:00:25;4.80;;;3.20;;
72791;SDS011;60907;53.268;8.764;2023-08-24T11:02:52;4.43;;;2.80;;
72791;SDS011;60907;53.268;8.764;2023-08-24T11:07:56;7.10;;;2.40;;
72791;SDS011;60907;53.268;8.764;2023-08-24T11:10:23;5.25;;;2.65;;
72791;SDS011;60907;53.268;8.764;2023-08-24T11:15:29;7.40;;;2.53;;
72791;SDS011;60907;53.268;8.764;2023-08-24T11:20:50;2.95;;;1.80;;
72791;SDS011;60907;53.268;8.764;2023-08-24T11:23:16;4.38;;;2.63;;
72791;SDS011;60907;53.268;8.764;2023-08-24T11:25:42;4.88;;;2.63;;
72791;SDS011;60907;53.268;8.764;2023-08-24T11:28:07;9.07;;;2.80;;
72791;SDS011;60907;53.268;8.764;2023-08-24T11:30:33;4.15;;;2.75;;
72791;SDS011;60907;53.268;8.764;2023-08-24T11:32:59;4.95;;;3.08;;
72791;SDS011;60907;53.268;8.764;2023-08-24T11:35:25;5.95;;;2.35;;
72791;SDS011;60907;53.268;8.764;2023-08-24T11:37:54;6.28;;;3.00;;
72791;SDS011;60907;53.268;8.764;2023-08-24T11:40:22;4.00;;;2.03;;
72791;SDS011;60907;53.268;8.764;2023-08-24T11:42:55;4.57;;;2.03;;
72791;SDS011;60907;53.268;8.764;2023-08-24T11:45:20;3.38;;;2.03;;
72791;SDS011;60907;53.268;8.764;2023-08-24T11:47:46;4.53;;;2.10;;
72791;SDS011;60907;53.268;8.764;2023-08-24T11:50:12;5.65;;;2.78;;
72791;SDS011;60907;53.268;8.764;2023-08-24T11:52:41;6.47;;;3.20;;
72791;SDS011;60907;53.268;8.764;2023-08-24T11:55:07;4.70;;;2.63;;
72791;SDS011;60907;53.268;8.764;2023-08-24T11:57:37;8.45;;;2.92;;
72791;SDS011;60907;53.268;8.764;2023-08-24T12:00:03;6.72;;;2.50;;
72791;SDS011;60907;53.268;8.764;2023-08-24T12:02:30;6.97;;;2.35;;
72791;SDS011;60907;53.268;8.764;2023-08-24T12:04:57;5.20;;;2.45;;
72791;SDS011;60907;53.268;8.764;2023-08-24T12:09:47;3.90;;;2.20;;
72791;SDS011;60907;53.268;8.764;2023-08-24T12:12:17;7.65;;;2.47;;
72791;SDS011;60907;53.268;8.764;2023-08-24T12:14:45;4.82;;;2.92;;
72791;SDS011;60907;53.268;8.764;2023-08-24T12:17:12;4.05;;;2.60;;
72791;SDS011;60907;53.268;8.764;2023-08-24T12:19:57;6.80;;;2.50;;
72791;SDS011;60907;53.268;8.764;2023-08-24T12:22:25;3.75;;;2.60;;
72791;SDS011;60907;53.268;8.764;2023-08-24T12:24:50;3.55;;;2.08;;
72791;SDS011;60907;53.268;8.764;2023-08-24T12:27:22;3.38;;;2.20;;
72791;SDS011;60907;53.268;8.764;2023-08-24T12:29:48;4.50;;;1.90;;
72791;SDS011;60907;53.268;8.764;2023-08-24T12:32:14;6.82;;;2.50;;
72791;SDS011;60907;53.268;8.764;2023-08-24T12:34:48;4.93;;;2.45;;
72791;SDS011;60907;53.268;8.764;2023-08-24T12:37:16;3.97;;;1.95;;
72791;SDS011;60907;53.268;8.764;2023-08-24T12:39:42;3.63;;;2.20;;
72791;SDS011;60907;53.268;8.764;2023-08-24T12:42:07;3.72;;;2.05;;
72791;SDS011;60907;53.268;8.764;2023-08-24T12:44:33;3.88;;;2.63;;
72791;SDS011;60907;53.268;8.764;2023-08-24T12:46:59;4.60;;;2.10;;
72791;SDS011;60907;53.268;8.764;2023-08-24T12:49:24;6.88;;;2.55;;
72791;SDS011;60907;53.268;8.764;2023-08-24T12:51:49;3.83;;;2.10;;
72791;SDS011;60907;53.268;8.764;2023-08-24T12:54:15;4.68;;;2.63;;
72791;SDS011;60907;53.268;8.764;2023-08-24T12:56:40;6.25;;;1.98;;
72791;SDS011;60907;53.268;8.764;2023-08-24T12:59:06;7.10;;;2.55;;
72791;SDS011;60907;53.268;8.764;2023-08-24T13:01:31;6.78;;;2.08;;
72791;SDS011;60907;53.268;8.764;2023-08-24T13:03:57;3.88;;;2.17;;
72791;SDS011;60907;53.268;8.764;2023-08-24T13:06:22;3.28;;;1.75;;
72791;SDS011;60907;53.268;8.764;2023-08-24T13:08:48;2.83;;;2.20;;
72791;SDS011;60907;53.268;8.764;2023-08-24T13:11:13;3.73;;;1.97;;
72791;SDS011;60907;53.268;8.764;2023-08-24T13:13:38;4.93;;;1.77;;
72791;SDS011;60907;53.268;8.764;2023-08-24T13:16:04;4.23;;;2.40;;
72791;SDS011;60907;53.268;8.764;2023-08-24T13:18:29;3.43;;;2.53;;
72791;SDS011;60907;53.268;8.764;2023-08-24T13:20:55;3.57;;;1.97;;
72791;SDS011;60907;53.268;8.764;2023-08-24T13:23:20;5.20;;;2.40;;
72791;SDS011;60907;53.268;8.764;2023-08-24T13:25:45;4.13;;;2.17;;
72791;SDS011;60907;53.268;8.764;2023-08-24T13:28:11;3.13;;;2.22;;
72791;SDS011;60907;53.268;8.764;2023-08-24T13:30:37;2.70;;;1.90;;
72791;SDS011;60907;53.268;8.764;2023-08-24T13:33:02;3.75;;;2.03;;
72791;SDS011;60907;53.268;8.764;2023-08-24T13:35:28;7.60;;;2.78;;
72791;SDS011;60907;53.268;8.764;2023-08-24T13:37:53;4.35;;;2.20;;
72791;SDS011;60907;53.268;8.764;2023-08-24T13:40:19;4.78;;;2.10;;
72791;SDS011;60907;53.268;8.764;2023-08-24T13:42:44;9.52;;;2.58;;
72791;SDS011;60907;53.268;8.764;2023-08-24T13:45:10;3.15;;;2.00;;
72791;SDS011;60907;53.268;8.764;2023-08-24T13:47:35;4.85;;;2.17;;
72791;SDS011;60907;53.268;8.764;2023-08-24T13:50:01;5.53;;;2.73;;
72791;SDS011;60907;53.268;8.764;2023-08-24T13:52:27;3.95;;;1.92;;
72791;SDS011;60907;53.268;8.764;2023-08-24T13:54:52;5.05;;;1.90;;
72791;SDS011;60907;53.268;8.764;2023-08-24T13:57:18;5.28;;;2.28;;
72791;SDS011;60907;53.268;8.764;2023-08-24T13:59:43;4.82;;;2.10;;
72791;SDS011;60907;53.268;8.764;2023-08-24T14:02:09;2.57;;;1.90;;
72791;SDS011;60907;53.268;8.764;2023-08-24T14:04:36;4.20;;;1.85;;
72791;SDS011;60907;53.268;8.764;2023-08-24T14:07:01;4.20;;;1.60;;
72791;SDS011;60907;53.268;8.764;2023-08-24T14:09:27;3.58;;;2.00;;
72791;SDS011;60907;53.268;8.764;2023-08-24T14:11:52;3.47;;;1.60;;
72791;SDS011;60907;53.268;8.764;2023-08-24T14:14:18;4.10;;;2.15;;
72791;SDS011;60907;53.268;8.764;2023-08-24T14:16:43;3.72;;;1.77;;
72791;SDS011;60907;53.268;8.764;2023-08-24T14:19:08;2.88;;;1.80;;
72791;SDS011;60907;53.268;8.764;2023-08-24T14:21:34;3.92;;;1.60;;
72791;SDS011;60907;53.268;8.764;2023-08-24T14:24:00;3.85;;;1.83;;
72791;SDS011;60907;53.268;8.764;2023-08-24T14:26:25;6.18;;;2.20;;
72791;SDS011;60907;53.268;8.764;2023-08-24T14:28:55;3.67;;;2.13;;
72791;SDS011;60907;53.268;8.764;2023-08-24T14:31:25;8.10;;;2.00;;
72791;SDS011;60907;53.268;8.764;2023-08-24T14:33:51;3.65;;;2.17;;
72791;SDS011;60907;53.268;8.764;2023-08-24T14:36:17;2.35;;;1.52;;
72791;SDS011;60907;53.268;8.764;2023-08-24T14:38:43;3.08;;;2.00;;
72791;SDS011;60907;53.268;8.764;2023-08-24T14:41:09;4.60;;;1.90;;
72791;SDS011;60907;53.268;8.764;2023-08-24T14:43:36;2.80;;;1.85;;
72791;SDS011;60907;53.268;8.764;2023-08-24T14:46:02;2.90;;;1.60;;
72791;SDS011;60907;53.268;8.764;2023-08-24T14:48:28;3.15;;;1.80;;
72791;SDS011;60907;53.268;8.764;2023-08-24T14:50:54;2.83;;;1.77;;
72791;SDS011;60907;53.268;8.764;2023-08-24T14:53:19;3.85;;;1.77;;
72791;SDS011;60907;53.268;8.764;2023-08-24T14:55:45;3.72;;;1.80;;
72791;SDS011;60907;53.268;8.764;2023-08-24T14:58:10;4.50;;;1.88;;
72791;SDS011;60907;53.268;8.764;2023-08-24T15:00:36;3.60;;;1.92;;
72791;SDS011;60907;53.268;8.764;2023-08-24T15:03:01;3.45;;;1.92;;
72791;SDS011;60907;53.268;8.764;2023-08-24T15:07:53;2.83;;;1.80;;